Peachtree City, GA (30269)

6:59 AM EDT on August 29, 2015 (GMT -0400)
Shadowood | | Change Station
CLOSE
Current Station
Personal Weather Station
Location: Peachtree City, GA
Elevation: 892 ft
Nearby Weather Stations

Elev 892 ft 33.39 °N, 84.56 °W | Updated 10 minutes ago

Overcast
Overcast
69.1 °F
Feels Like 69.1 °F
N
0.0
Wind Variable Wind from South

Today
High -- | Low -- °F
--% Chance of Precip.
Yesterday
High -- | Low -- °F
Precip. -- in
7:10 AM 8:07 PM
Full, 100% visible
Pressure 30.15 in
Visibility 3.0 miles
Clouds Overcast 1000 ft
Dew Point 68 °F
Humidity 97%
Rainfall 0.00 in
Snow Depth Not available.
UV 0 out of 12
Pollen 8.30 out of 12
Air Quality Not available.
Flu Activity Not available.
METAR KFFC 291053Z AUTO 00000KT 3SM BR OVC010 21/19 A3016 RMK AO2 SLP208 T02060194
Pressure 30.15 in
Visibility 3.0 miles
Clouds Overcast 1000 ft
Dew Point 68 °F
Humidity 97%
Rainfall 0.00 in
Snow Depth Not available.
UV 0 out of 12
Pollen 8.30 out of 12
Air Quality Not available.
Flu Activity Not available.
METAR KFFC 291053Z AUTO 00000KT 3SM BR OVC010 21/19 A3016 RMK AO2 SLP208 T02060194

10-Day Weather Forecast

×

Almanac

Astronomy

Aug. 29, 2015 Rise Set
Actual Time
Civil Twilight
Nautical Twilight
Astronomical Twilight
Moon
Length of Visible Light
Length of Day
Tomorrow will be .
, % of the Moon is Illuminated

Today's Extremes

State Highs State Lows

Community

WunderPhotos

Upload Photos

1,850,633 photos uploaded!

WunderBlogs® & News

Nearby

Air Quality

  Air Quality AQ Index Pollutant
Not available.

Snow Depth

Station Depth Elevation

Earthquake Activity

City Distance Mag. Time & Date
Minimum magnitude displayed is 2.5.

Coastal Water Temperatures

Place Temperature

Stations

Nearby Weather Stations

Station Location Temp. Windchill Dew Point Humidity Wind Precip. Elev Updated Type